Terminal Aerodrome Forecast
Issued by NWS

Home | Current Version | Previous Version | Text Only | Print | Product List | Glossary On
Versions: 1 2 3 4 5 6 7 8 9 10 11 12 13 14 15 16 17 18 19 20 21 22 23 24 25 26 27 28 29 30 31 32
000
FTUS43 KPAH 301724
TAFCGI
TAF
KCGI 301724Z 3018/3118 29004KT P6SM SCT040
     FM310100 VRB02KT 6SM HZ SCT150
     FM310600 00000KT 1SM BR SCT002
     FM311300 18004KT P6SM FEW020=

USA.gov is the U.S. government's official web portal to all federal, state and local government web resources and services.